sensor_id;sensor_type;location;lat;lon;timestamp;P1;durP1;ratioP1;P2;durP2;ratioP2
14348;SDS011;7258;50.376;8.742;2024-02-16T00:00:09;13.53;;;7.20;;
14348;SDS011;7258;50.376;8.742;2024-02-16T00:02:13;9.47;;;6.80;;
14348;SDS011;7258;50.376;8.742;2024-02-16T00:04:16;14.10;;;6.43;;
14348;SDS011;7258;50.376;8.742;2024-02-16T00:06:18;10.30;;;6.20;;
14348;SDS011;7258;50.376;8.742;2024-02-16T00:08:21;8.27;;;6.20;;
14348;SDS011;7258;50.376;8.742;2024-02-16T00:10:23;9.37;;;6.17;;
14348;SDS011;7258;50.376;8.742;2024-02-16T00:12:28;8.87;;;6.37;;
14348;SDS011;7258;50.376;8.742;2024-02-16T00:14:30;11.50;;;6.30;;
14348;SDS011;7258;50.376;8.742;2024-02-16T00:16:34;9.97;;;6.83;;
14348;SDS011;7258;50.376;8.742;2024-02-16T00:18:36;9.67;;;6.67;;
14348;SDS011;7258;50.376;8.742;2024-02-16T00:20:38;8.43;;;6.23;;
14348;SDS011;7258;50.376;8.742;2024-02-16T00:22:41;8.80;;;5.67;;
14348;SDS011;7258;50.376;8.742;2024-02-16T00:24:44;9.20;;;5.43;;
14348;SDS011;7258;50.376;8.742;2024-02-16T00:26:47;10.30;;;6.07;;
14348;SDS011;7258;50.376;8.742;2024-02-16T00:28:50;7.50;;;5.63;;
14348;SDS011;7258;50.376;8.742;2024-02-16T00:30:53;9.13;;;5.07;;
14348;SDS011;7258;50.376;8.742;2024-02-16T00:32:56;6.33;;;4.87;;
14348;SDS011;7258;50.376;8.742;2024-02-16T00:35:02;8.50;;;5.20;;
14348;SDS011;7258;50.376;8.742;2024-02-16T00:37:05;9.57;;;5.43;;
14348;SDS011;7258;50.376;8.742;2024-02-16T00:39:10;8.00;;;5.17;;
14348;SDS011;7258;50.376;8.742;2024-02-16T00:41:16;6.77;;;4.57;;
14348;SDS011;7258;50.376;8.742;2024-02-16T00:43:21;7.57;;;4.73;;
14348;SDS011;7258;50.376;8.742;2024-02-16T00:45:25;6.93;;;4.97;;
14348;SDS011;7258;50.376;8.742;2024-02-16T00:47:29;6.93;;;4.80;;
14348;SDS011;7258;50.376;8.742;2024-02-16T00:49:32;6.30;;;4.80;;
14348;SDS011;7258;50.376;8.742;2024-02-16T00:51:37;6.80;;;4.53;;
14348;SDS011;7258;50.376;8.742;2024-02-16T00:53:39;7.23;;;5.00;;
14348;SDS011;7258;50.376;8.742;2024-02-16T00:55:41;5.20;;;4.70;;
14348;SDS011;7258;50.376;8.742;2024-02-16T00:57:46;7.73;;;5.07;;
14348;SDS011;7258;50.376;8.742;2024-02-16T00:59:50;9.60;;;4.90;;
14348;SDS011;7258;50.376;8.742;2024-02-16T01:01:54;8.43;;;4.83;;
14348;SDS011;7258;50.376;8.742;2024-02-16T01:03:56;7.33;;;4.60;;
14348;SDS011;7258;50.376;8.742;2024-02-16T01:05:59;6.67;;;4.57;;
14348;SDS011;7258;50.376;8.742;2024-02-16T01:08:03;6.27;;;4.80;;
14348;SDS011;7258;50.376;8.742;2024-02-16T01:10:06;6.75;;;4.60;;
14348;SDS011;7258;50.376;8.742;2024-02-16T01:12:10;11.70;;;4.87;;
14348;SDS011;7258;50.376;8.742;2024-02-16T01:14:14;7.07;;;4.53;;
14348;SDS011;7258;50.376;8.742;2024-02-16T01:16:17;7.37;;;4.37;;
14348;SDS011;7258;50.376;8.742;2024-02-16T01:18:21;8.20;;;4.50;;
14348;SDS011;7258;50.376;8.742;2024-02-16T01:20:24;7.57;;;5.07;;
14348;SDS011;7258;50.376;8.742;2024-02-16T01:22:27;10.98;;;4.88;;
14348;SDS011;7258;50.376;8.742;2024-02-16T01:24:30;6.00;;;4.90;;
14348;SDS011;7258;50.376;8.742;2024-02-16T01:26:33;7.10;;;4.72;;
14348;SDS011;7258;50.376;8.742;2024-02-16T01:28:36;8.50;;;4.70;;
14348;SDS011;7258;50.376;8.742;2024-02-16T01:30:39;5.13;;;4.20;;
14348;SDS011;7258;50.376;8.742;2024-02-16T01:32:43;6.40;;;4.47;;
14348;SDS011;7258;50.376;8.742;2024-02-16T01:34:47;5.05;;;4.25;;
14348;SDS011;7258;50.376;8.742;2024-02-16T01:36:51;5.27;;;4.13;;
14348;SDS011;7258;50.376;8.742;2024-02-16T01:38:54;7.87;;;4.57;;
14348;SDS011;7258;50.376;8.742;2024-02-16T01:40:57;6.13;;;4.30;;
14348;SDS011;7258;50.376;8.742;2024-02-16T01:42:59;6.00;;;4.45;;
14348;SDS011;7258;50.376;8.742;2024-02-16T01:45:03;7.47;;;4.33;;
14348;SDS011;7258;50.376;8.742;2024-02-16T01:47:06;4.67;;;3.97;;
14348;SDS011;7258;50.376;8.742;2024-02-16T01:49:10;6.03;;;4.70;;
14348;SDS011;7258;50.376;8.742;2024-02-16T01:51:17;8.33;;;4.70;;
14348;SDS011;7258;50.376;8.742;2024-02-16T01:53:20;6.57;;;4.67;;
14348;SDS011;7258;50.376;8.742;2024-02-16T01:55:24;8.97;;;5.33;;
14348;SDS011;7258;50.376;8.742;2024-02-16T01:57:28;7.47;;;5.17;;
14348;SDS011;7258;50.376;8.742;2024-02-16T01:59:31;5.95;;;5.28;;
14348;SDS011;7258;50.376;8.742;2024-02-16T02:01:34;6.30;;;4.60;;
14348;SDS011;7258;50.376;8.742;2024-02-16T02:03:38;8.80;;;4.70;;
14348;SDS011;7258;50.376;8.742;2024-02-16T02:05:43;5.97;;;4.50;;
14348;SDS011;7258;50.376;8.742;2024-02-16T02:07:47;5.07;;;4.50;;
14348;SDS011;7258;50.376;8.742;2024-02-16T02:09:50;6.70;;;4.77;;
14348;SDS011;7258;50.376;8.742;2024-02-16T02:11:53;6.40;;;5.03;;
14348;SDS011;7258;50.376;8.742;2024-02-16T02:13:56;7.97;;;5.23;;
14348;SDS011;7258;50.376;8.742;2024-02-16T02:15:59;7.07;;;5.27;;
14348;SDS011;7258;50.376;8.742;2024-02-16T02:18:04;8.07;;;5.20;;
14348;SDS011;7258;50.376;8.742;2024-02-16T02:20:07;9.20;;;5.10;;
14348;SDS011;7258;50.376;8.742;2024-02-16T02:22:15;6.20;;;5.13;;
14348;SDS011;7258;50.376;8.742;2024-02-16T02:24:18;7.33;;;5.10;;
14348;SDS011;7258;50.376;8.742;2024-02-16T02:26:22;6.97;;;4.90;;
14348;SDS011;7258;50.376;8.742;2024-02-16T02:28:24;7.43;;;4.60;;
14348;SDS011;7258;50.376;8.742;2024-02-16T02:30:27;6.43;;;5.07;;
14348;SDS011;7258;50.376;8.742;2024-02-16T02:32:30;5.70;;;4.50;;
14348;SDS011;7258;50.376;8.742;2024-02-16T02:34:33;5.13;;;4.40;;
14348;SDS011;7258;50.376;8.742;2024-02-16T02:36:37;5.70;;;4.17;;
14348;SDS011;7258;50.376;8.742;2024-02-16T02:38:42;5.37;;;4.60;;
14348;SDS011;7258;50.376;8.742;2024-02-16T02:40:45;8.57;;;4.80;;
14348;SDS011;7258;50.376;8.742;2024-02-16T02:42:48;10.10;;;4.70;;
14348;SDS011;7258;50.376;8.742;2024-02-16T02:44:51;7.23;;;4.27;;
14348;SDS011;7258;50.376;8.742;2024-02-16T02:46:53;6.63;;;4.47;;
14348;SDS011;7258;50.376;8.742;2024-02-16T02:48:56;6.57;;;4.83;;
14348;SDS011;7258;50.376;8.742;2024-02-16T02:50:59;6.27;;;4.83;;
14348;SDS011;7258;50.376;8.742;2024-02-16T02:53:02;6.93;;;4.93;;
14348;SDS011;7258;50.376;8.742;2024-02-16T02:55:07;5.80;;;4.63;;
14348;SDS011;7258;50.376;8.742;2024-02-16T02:57:10;5.83;;;4.30;;
14348;SDS011;7258;50.376;8.742;2024-02-16T02:59:13;6.60;;;4.60;;
14348;SDS011;7258;50.376;8.742;2024-02-16T03:01:17;5.93;;;4.80;;
14348;SDS011;7258;50.376;8.742;2024-02-16T03:03:21;6.03;;;3.90;;
14348;SDS011;7258;50.376;8.742;2024-02-16T03:05:25;6.50;;;4.80;;
14348;SDS011;7258;50.376;8.742;2024-02-16T03:07:27;5.87;;;4.83;;
14348;SDS011;7258;50.376;8.742;2024-02-16T03:09:29;7.50;;;5.00;;
14348;SDS011;7258;50.376;8.742;2024-02-16T03:11:34;5.73;;;4.73;;
14348;SDS011;7258;50.376;8.742;2024-02-16T03:13:38;8.80;;;5.17;;
14348;SDS011;7258;50.376;8.742;2024-02-16T03:15:41;7.93;;;4.73;;
14348;SDS011;7258;50.376;8.742;2024-02-16T03:17:44;6.07;;;5.47;;
14348;SDS011;7258;50.376;8.742;2024-02-16T03:19:47;8.20;;;6.30;;
14348;SDS011;7258;50.376;8.742;2024-02-16T03:21:50;6.27;;;5.20;;
14348;SDS011;7258;50.376;8.742;2024-02-16T03:23:52;10.33;;;5.43;;
14348;SDS011;7258;50.376;8.742;2024-02-16T03:25:55;7.87;;;5.20;;
14348;SDS011;7258;50.376;8.742;2024-02-16T03:27:59;8.53;;;5.50;;
14348;SDS011;7258;50.376;8.742;2024-02-16T03:30:02;6.28;;;5.05;;
14348;SDS011;7258;50.376;8.742;2024-02-16T03:32:06;5.40;;;4.90;;
14348;SDS011;7258;50.376;8.742;2024-02-16T03:34:09;5.87;;;5.07;;
14348;SDS011;7258;50.376;8.742;2024-02-16T03:36:12;6.50;;;5.30;;
14348;SDS011;7258;50.376;8.742;2024-02-16T03:38:15;7.07;;;5.20;;
14348;SDS011;7258;50.376;8.742;2024-02-16T03:40:18;5.23;;;4.73;;
14348;SDS011;7258;50.376;8.742;2024-02-16T03:42:21;6.80;;;5.10;;
14348;SDS011;7258;50.376;8.742;2024-02-16T03:44:26;6.27;;;5.20;;
14348;SDS011;7258;50.376;8.742;2024-02-16T03:46:28;5.83;;;5.23;;
14348;SDS011;7258;50.376;8.742;2024-02-16T03:48:31;8.80;;;5.53;;
14348;SDS011;7258;50.376;8.742;2024-02-16T03:50:34;8.13;;;5.50;;
14348;SDS011;7258;50.376;8.742;2024-02-16T03:52:37;6.23;;;5.33;;
14348;SDS011;7258;50.376;8.742;2024-02-16T03:54:39;8.23;;;5.27;;
14348;SDS011;7258;50.376;8.742;2024-02-16T03:56:43;8.03;;;5.33;;
14348;SDS011;7258;50.376;8.742;2024-02-16T03:58:46;8.57;;;5.27;;
14348;SDS011;7258;50.376;8.742;2024-02-16T04:00:50;6.80;;;5.43;;
14348;SDS011;7258;50.376;8.742;2024-02-16T04:02:54;6.80;;;5.40;;
14348;SDS011;7258;50.376;8.742;2024-02-16T04:04:57;7.10;;;5.20;;
14348;SDS011;7258;50.376;8.742;2024-02-16T04:06:58;12.87;;;6.20;;
14348;SDS011;7258;50.376;8.742;2024-02-16T04:09:01;8.17;;;5.10;;
14348;SDS011;7258;50.376;8.742;2024-02-16T04:11:05;6.90;;;5.20;;
14348;SDS011;7258;50.376;8.742;2024-02-16T04:13:08;7.37;;;5.23;;
14348;SDS011;7258;50.376;8.742;2024-02-16T04:15:10;6.87;;;5.10;;
14348;SDS011;7258;50.376;8.742;2024-02-16T04:17:14;6.13;;;4.88;;
14348;SDS011;7258;50.376;8.742;2024-02-16T04:19:18;6.10;;;5.30;;
14348;SDS011;7258;50.376;8.742;2024-02-16T04:21:21;5.87;;;5.10;;
14348;SDS011;7258;50.376;8.742;2024-02-16T04:23:24;11.00;;;5.00;;
14348;SDS011;7258;50.376;8.742;2024-02-16T04:25:27;6.87;;;5.53;;
14348;SDS011;7258;50.376;8.742;2024-02-16T04:27:30;9.80;;;5.33;;
14348;SDS011;7258;50.376;8.742;2024-02-16T04:29:32;10.07;;;5.50;;
14348;SDS011;7258;50.376;8.742;2024-02-16T04:31:36;6.77;;;5.50;;
14348;SDS011;7258;50.376;8.742;2024-02-16T04:33:42;6.23;;;5.20;;
14348;SDS011;7258;50.376;8.742;2024-02-16T04:35:45;6.53;;;4.97;;
14348;SDS011;7258;50.376;8.742;2024-02-16T04:37:49;5.60;;;5.10;;
14348;SDS011;7258;50.376;8.742;2024-02-16T04:39:52;6.73;;;5.00;;
14348;SDS011;7258;50.376;8.742;2024-02-16T04:41:57;6.83;;;5.10;;
14348;SDS011;7258;50.376;8.742;2024-02-16T04:44:00;6.03;;;4.87;;
14348;SDS011;7258;50.376;8.742;2024-02-16T04:46:02;8.10;;;4.97;;
14348;SDS011;7258;50.376;8.742;2024-02-16T04:48:06;5.17;;;4.67;;
14348;SDS011;7258;50.376;8.742;2024-02-16T04:50:11;7.00;;;4.93;;
14348;SDS011;7258;50.376;8.742;2024-02-16T04:52:15;7.03;;;5.13;;
14348;SDS011;7258;50.376;8.742;2024-02-16T04:54:19;6.90;;;4.63;;
14348;SDS011;7258;50.376;8.742;2024-02-16T04:56:22;6.13;;;4.93;;
14348;SDS011;7258;50.376;8.742;2024-02-16T04:58:25;9.67;;;5.23;;
14348;SDS011;7258;50.376;8.742;2024-02-16T05:00:28;5.90;;;4.87;;
14348;SDS011;7258;50.376;8.742;2024-02-16T05:02:30;8.53;;;5.27;;
14348;SDS011;7258;50.376;8.742;2024-02-16T05:04:33;5.53;;;5.03;;
14348;SDS011;7258;50.376;8.742;2024-02-16T05:06:39;6.20;;;5.03;;
14348;SDS011;7258;50.376;8.742;2024-02-16T05:08:42;6.73;;;5.63;;
14348;SDS011;7258;50.376;8.742;2024-02-16T05:10:45;6.37;;;5.23;;
14348;SDS011;7258;50.376;8.742;2024-02-16T05:12:48;7.37;;;4.77;;
14348;SDS011;7258;50.376;8.742;2024-02-16T05:14:51;7.37;;;5.57;;
14348;SDS011;7258;50.376;8.742;2024-02-16T05:16:54;7.53;;;5.40;;
14348;SDS011;7258;50.376;8.742;2024-02-16T05:19:00;5.83;;;5.23;;
14348;SDS011;7258;50.376;8.742;2024-02-16T05:21:03;6.73;;;5.23;;
14348;SDS011;7258;50.376;8.742;2024-02-16T05:23:08;6.80;;;5.13;;
14348;SDS011;7258;50.376;8.742;2024-02-16T05:25:11;10.57;;;5.87;;
14348;SDS011;7258;50.376;8.742;2024-02-16T05:27:14;7.90;;;5.60;;
14348;SDS011;7258;50.376;8.742;2024-02-16T05:29:17;7.90;;;6.33;;
14348;SDS011;7258;50.376;8.742;2024-02-16T05:31:20;10.53;;;6.13;;
14348;SDS011;7258;50.376;8.742;2024-02-16T05:33:23;10.20;;;6.17;;
14348;SDS011;7258;50.376;8.742;2024-02-16T05:35:28;7.33;;;6.30;;
14348;SDS011;7258;50.376;8.742;2024-02-16T05:37:35;7.20;;;6.07;;
14348;SDS011;7258;50.376;8.742;2024-02-16T05:39:39;8.57;;;6.30;;
14348;SDS011;7258;50.376;8.742;2024-02-16T05:41:55;8.33;;;5.70;;
14348;SDS011;7258;50.376;8.742;2024-02-16T05:43:58;8.33;;;6.00;;
14348;SDS011;7258;50.376;8.742;2024-02-16T05:46:01;8.55;;;6.07;;
14348;SDS011;7258;50.376;8.742;2024-02-16T05:48:04;8.80;;;6.07;;
14348;SDS011;7258;50.376;8.742;2024-02-16T05:50:07;8.33;;;6.17;;
14348;SDS011;7258;50.376;8.742;2024-02-16T05:52:11;10.27;;;5.97;;
14348;SDS011;7258;50.376;8.742;2024-02-16T05:54:19;6.95;;;5.90;;
14348;SDS011;7258;50.376;8.742;2024-02-16T05:56:24;6.90;;;6.17;;
14348;SDS011;7258;50.376;8.742;2024-02-16T05:58:29;8.13;;;6.10;;
14348;SDS011;7258;50.376;8.742;2024-02-16T06:00:33;7.27;;;6.43;;
14348;SDS011;7258;50.376;8.742;2024-02-16T06:02:36;8.13;;;6.10;;
14348;SDS011;7258;50.376;8.742;2024-02-16T06:04:39;9.63;;;6.60;;
14348;SDS011;7258;50.376;8.742;2024-02-16T06:06:43;13.87;;;7.10;;
14348;SDS011;7258;50.376;8.742;2024-02-16T06:08:46;9.07;;;7.07;;
14348;SDS011;7258;50.376;8.742;2024-02-16T06:10:49;8.43;;;6.90;;
14348;SDS011;7258;50.376;8.742;2024-02-16T06:12:56;8.00;;;6.93;;
14348;SDS011;7258;50.376;8.742;2024-02-16T06:14:59;8.40;;;6.73;;
14348;SDS011;7258;50.376;8.742;2024-02-16T06:17:02;10.60;;;7.57;;
14348;SDS011;7258;50.376;8.742;2024-02-16T06:19:05;9.83;;;7.53;;
14348;SDS011;7258;50.376;8.742;2024-02-16T06:21:09;10.07;;;7.37;;
14348;SDS011;7258;50.376;8.742;2024-02-16T06:23:14;8.93;;;6.90;;
14348;SDS011;7258;50.376;8.742;2024-02-16T06:25:18;9.43;;;8.13;;
14348;SDS011;7258;50.376;8.742;2024-02-16T06:27:21;9.77;;;7.80;;
14348;SDS011;7258;50.376;8.742;2024-02-16T06:29:26;9.43;;;7.40;;
14348;SDS011;7258;50.376;8.742;2024-02-16T06:31:29;9.10;;;7.53;;
14348;SDS011;7258;50.376;8.742;2024-02-16T06:33:32;9.17;;;7.47;;
14348;SDS011;7258;50.376;8.742;2024-02-16T06:35:35;9.63;;;7.23;;
14348;SDS011;7258;50.376;8.742;2024-02-16T06:37:38;13.37;;;8.60;;
14348;SDS011;7258;50.376;8.742;2024-02-16T06:39:41;9.57;;;7.13;;
14348;SDS011;7258;50.376;8.742;2024-02-16T06:41:44;11.17;;;7.03;;
14348;SDS011;7258;50.376;8.742;2024-02-16T06:43:48;10.33;;;7.43;;
14348;SDS011;7258;50.376;8.742;2024-02-16T06:45:52;10.43;;;7.03;;
14348;SDS011;7258;50.376;8.742;2024-02-16T06:47:57;12.17;;;7.60;;
14348;SDS011;7258;50.376;8.742;2024-02-16T06:50:00;12.03;;;6.50;;
14348;SDS011;7258;50.376;8.742;2024-02-16T06:52:04;9.33;;;6.90;;
14348;SDS011;7258;50.376;8.742;2024-02-16T06:54:07;11.63;;;6.97;;
14348;SDS011;7258;50.376;8.742;2024-02-16T06:56:11;9.13;;;7.17;;
14348;SDS011;7258;50.376;8.742;2024-02-16T06:58:14;9.07;;;7.20;;
14348;SDS011;7258;50.376;8.742;2024-02-16T07:00:17;9.17;;;7.30;;
14348;SDS011;7258;50.376;8.742;2024-02-16T07:02:22;12.83;;;7.50;;
14348;SDS011;7258;50.376;8.742;2024-02-16T07:04:25;10.50;;;8.13;;
14348;SDS011;7258;50.376;8.742;2024-02-16T07:06:28;11.33;;;7.83;;
14348;SDS011;7258;50.376;8.742;2024-02-16T07:08:31;10.23;;;7.00;;
14348;SDS011;7258;50.376;8.742;2024-02-16T07:10:34;12.40;;;7.53;;
14348;SDS011;7258;50.376;8.742;2024-02-16T07:12:37;11.13;;;8.07;;
14348;SDS011;7258;50.376;8.742;2024-02-16T07:14:40;9.27;;;7.53;;
14348;SDS011;7258;50.376;8.742;2024-02-16T07:16:43;11.20;;;7.37;;
14348;SDS011;7258;50.376;8.742;2024-02-16T07:18:47;8.85;;;7.65;;
14348;SDS011;7258;50.376;8.742;2024-02-16T07:20:50;12.00;;;7.97;;
14348;SDS011;7258;50.376;8.742;2024-02-16T07:22:52;12.03;;;7.80;;
14348;SDS011;7258;50.376;8.742;2024-02-16T07:24:55;10.65;;;7.38;;
14348;SDS011;7258;50.376;8.742;2024-02-16T07:26:57;9.23;;;7.20;;
14348;SDS011;7258;50.376;8.742;2024-02-16T07:29:00;8.93;;;7.05;;
14348;SDS011;7258;50.376;8.742;2024-02-16T07:31:03;9.98;;;7.43;;
14348;SDS011;7258;50.376;8.742;2024-02-16T07:33:07;10.20;;;7.38;;
14348;SDS011;7258;50.376;8.742;2024-02-16T07:35:11;8.35;;;6.85;;
14348;SDS011;7258;50.376;8.742;2024-02-16T07:37:16;9.52;;;7.20;;
14348;SDS011;7258;50.376;8.742;2024-02-16T07:39:19;9.10;;;6.45;;
14348;SDS011;7258;50.376;8.742;2024-02-16T07:41:24;9.00;;;7.38;;
14348;SDS011;7258;50.376;8.742;2024-02-16T07:43:28;12.40;;;7.25;;
14348;SDS011;7258;50.376;8.742;2024-02-16T07:45:31;8.50;;;6.78;;
14348;SDS011;7258;50.376;8.742;2024-02-16T07:47:34;10.60;;;7.35;;
14348;SDS011;7258;50.376;8.742;2024-02-16T07:49:37;14.35;;;7.72;;
14348;SDS011;7258;50.376;8.742;2024-02-16T07:51:42;10.27;;;7.10;;
14348;SDS011;7258;50.376;8.742;2024-02-16T07:53:45;9.65;;;7.35;;
14348;SDS011;7258;50.376;8.742;2024-02-16T07:55:48;8.32;;;7.35;;
14348;SDS011;7258;50.376;8.742;2024-02-16T07:57:51;11.90;;;6.60;;
14348;SDS011;7258;50.376;8.742;2024-02-16T07:59:53;9.85;;;7.10;;
14348;SDS011;7258;50.376;8.742;2024-02-16T08:01:56;9.95;;;7.47;;
14348;SDS011;7258;50.376;8.742;2024-02-16T08:04:00;11.07;;;7.18;;
14348;SDS011;7258;50.376;8.742;2024-02-16T08:06:07;8.73;;;7.47;;
14348;SDS011;7258;50.376;8.742;2024-02-16T08:08:11;10.60;;;7.50;;
14348;SDS011;7258;50.376;8.742;2024-02-16T08:10:14;9.93;;;7.15;;
14348;SDS011;7258;50.376;8.742;2024-02-16T08:12:17;10.82;;;7.70;;
14348;SDS011;7258;50.376;8.742;2024-02-16T08:14:20;10.98;;;7.78;;
14348;SDS011;7258;50.376;8.742;2024-02-16T08:16:23;10.10;;;7.70;;
14348;SDS011;7258;50.376;8.742;2024-02-16T08:18:26;9.80;;;7.75;;
14348;SDS011;7258;50.376;8.742;2024-02-16T08:20:29;10.68;;;7.90;;
14348;SDS011;7258;50.376;8.742;2024-02-16T08:22:32;14.27;;;7.68;;
14348;SDS011;7258;50.376;8.742;2024-02-16T08:24:36;11.05;;;7.47;;
14348;SDS011;7258;50.376;8.742;2024-02-16T08:26:40;12.02;;;7.70;;
14348;SDS011;7258;50.376;8.742;2024-02-16T08:28:43;10.85;;;7.68;;
14348;SDS011;7258;50.376;8.742;2024-02-16T08:30:46;8.80;;;7.80;;
14348;SDS011;7258;50.376;8.742;2024-02-16T08:32:49;9.45;;;7.43;;
14348;SDS011;7258;50.376;8.742;2024-02-16T08:34:53;10.77;;;8.13;;
14348;SDS011;7258;50.376;8.742;2024-02-16T08:36:57;11.63;;;8.10;;
14348;SDS011;7258;50.376;8.742;2024-02-16T08:39:00;13.80;;;8.43;;
14348;SDS011;7258;50.376;8.742;2024-02-16T08:41:04;12.55;;;8.43;;
14348;SDS011;7258;50.376;8.742;2024-02-16T08:43:07;10.15;;;8.32;;
14348;SDS011;7258;50.376;8.742;2024-02-16T08:45:10;13.00;;;7.93;;
14348;SDS011;7258;50.376;8.742;2024-02-16T08:47:14;14.45;;;8.10;;
14348;SDS011;7258;50.376;8.742;2024-02-16T08:49:17;8.63;;;7.82;;
14348;SDS011;7258;50.376;8.742;2024-02-16T08:51:21;14.25;;;8.77;;
14348;SDS011;7258;50.376;8.742;2024-02-16T08:53:25;10.40;;;7.85;;
14348;SDS011;7258;50.376;8.742;2024-02-16T08:55:28;10.13;;;8.20;;
14348;SDS011;7258;50.376;8.742;2024-02-16T08:57:34;9.60;;;8.27;;
14348;SDS011;7258;50.376;8.742;2024-02-16T08:59:37;8.95;;;8.05;;
14348;SDS011;7258;50.376;8.742;2024-02-16T09:01:40;8.85;;;7.82;;
14348;SDS011;7258;50.376;8.742;2024-02-16T09:03:43;10.70;;;9.07;;
14348;SDS011;7258;50.376;8.742;2024-02-16T09:05:46;9.88;;;8.05;;
14348;SDS011;7258;50.376;8.742;2024-02-16T09:07:49;11.00;;;8.48;;
14348;SDS011;7258;50.376;8.742;2024-02-16T09:09:52;11.40;;;8.75;;
14348;SDS011;7258;50.376;8.742;2024-02-16T09:11:57;11.38;;;8.23;;
14348;SDS011;7258;50.376;8.742;2024-02-16T09:14:01;12.63;;;8.98;;
14348;SDS011;7258;50.376;8.742;2024-02-16T09:16:04;11.95;;;8.90;;
14348;SDS011;7258;50.376;8.742;2024-02-16T09:18:08;11.60;;;8.30;;
14348;SDS011;7258;50.376;8.742;2024-02-16T09:20:11;10.48;;;8.27;;
14348;SDS011;7258;50.376;8.742;2024-02-16T09:22:13;10.40;;;8.95;;
14348;SDS011;7258;50.376;8.742;2024-02-16T09:24:16;12.43;;;8.27;;
14348;SDS011;7258;50.376;8.742;2024-02-16T09:26:20;9.20;;;8.30;;
14348;SDS011;7258;50.376;8.742;2024-02-16T09:28:23;12.90;;;8.40;;
14348;SDS011;7258;50.376;8.742;2024-02-16T09:30:32;17.05;;;9.18;;
14348;SDS011;7258;50.376;8.742;2024-02-16T09:32:35;9.85;;;8.70;;
14348;SDS011;7258;50.376;8.742;2024-02-16T09:34:38;11.35;;;8.80;;
14348;SDS011;7258;50.376;8.742;2024-02-16T09:36:43;9.77;;;8.25;;
14348;SDS011;7258;50.376;8.742;2024-02-16T09:38:46;12.88;;;9.10;;
14348;SDS011;7258;50.376;8.742;2024-02-16T09:40:49;11.93;;;9.18;;
14348;SDS011;7258;50.376;8.742;2024-02-16T09:42:53;12.85;;;9.15;;
14348;SDS011;7258;50.376;8.742;2024-02-16T09:44:56;10.32;;;8.85;;
14348;SDS011;7258;50.376;8.742;2024-02-16T09:47:00;10.73;;;8.93;;
14348;SDS011;7258;50.376;8.742;2024-02-16T09:49:04;12.50;;;9.15;;
14348;SDS011;7258;50.376;8.742;2024-02-16T09:51:07;11.82;;;9.10;;
14348;SDS011;7258;50.376;8.742;2024-02-16T09:53:10;9.43;;;8.48;;
14348;SDS011;7258;50.376;8.742;2024-02-16T09:55:15;11.95;;;8.63;;
14348;SDS011;7258;50.376;8.742;2024-02-16T09:57:18;11.70;;;9.35;;
14348;SDS011;7258;50.376;8.742;2024-02-16T09:59:22;12.23;;;9.38;;
14348;SDS011;7258;50.376;8.742;2024-02-16T10:01:25;13.60;;;9.07;;
14348;SDS011;7258;50.376;8.742;2024-02-16T10:03:31;9.45;;;8.40;;
14348;SDS011;7258;50.376;8.742;2024-02-16T10:05:35;9.77;;;8.60;;
14348;SDS011;7258;50.376;8.742;2024-02-16T10:07:37;9.60;;;8.50;;
14348;SDS011;7258;50.376;8.742;2024-02-16T10:09:41;13.77;;;9.57;;
14348;SDS011;7258;50.376;8.742;2024-02-16T10:11:44;13.13;;;8.55;;
14348;SDS011;7258;50.376;8.742;2024-02-16T10:13:53;9.70;;;8.45;;
14348;SDS011;7258;50.376;8.742;2024-02-16T10:16:04;10.57;;;8.65;;
14348;SDS011;7258;50.376;8.742;2024-02-16T10:18:10;11.48;;;8.43;;
14348;SDS011;7258;50.376;8.742;2024-02-16T10:20:19;10.68;;;8.45;;
14348;SDS011;7258;50.376;8.742;2024-02-16T10:22:20;10.80;;;8.18;;
14348;SDS011;7258;50.376;8.742;2024-02-16T10:24:24;11.75;;;8.32;;
14348;SDS011;7258;50.376;8.742;2024-02-16T10:26:27;11.15;;;9.02;;
14348;SDS011;7258;50.376;8.742;2024-02-16T10:28:29;10.25;;;8.48;;
14348;SDS011;7258;50.376;8.742;2024-02-16T10:30:34;12.45;;;8.55;;
14348;SDS011;7258;50.376;8.742;2024-02-16T10:32:39;9.82;;;8.20;;
14348;SDS011;7258;50.376;8.742;2024-02-16T10:34:43;9.98;;;7.70;;
14348;SDS011;7258;50.376;8.742;2024-02-16T10:36:50;13.77;;;8.23;;
14348;SDS011;7258;50.376;8.742;2024-02-16T10:38:55;9.18;;;8.20;;
14348;SDS011;7258;50.376;8.742;2024-02-16T10:40:58;10.50;;;7.72;;
14348;SDS011;7258;50.376;8.742;2024-02-16T10:43:03;8.70;;;7.75;;
14348;SDS011;7258;50.376;8.742;2024-02-16T10:45:08;10.77;;;8.60;;
14348;SDS011;7258;50.376;8.742;2024-02-16T10:47:12;11.07;;;8.55;;
14348;SDS011;7258;50.376;8.742;2024-02-16T10:49:15;10.25;;;8.70;;
14348;SDS011;7258;50.376;8.742;2024-02-16T10:51:19;8.43;;;7.38;;
14348;SDS011;7258;50.376;8.742;2024-02-16T10:53:27;11.07;;;8.25;;
14348;SDS011;7258;50.376;8.742;2024-02-16T10:55:33;10.60;;;7.72;;
14348;SDS011;7258;50.376;8.742;2024-02-16T10:57:37;11.30;;;7.82;;
14348;SDS011;7258;50.376;8.742;2024-02-16T10:59:42;10.48;;;7.75;;
14348;SDS011;7258;50.376;8.742;2024-02-16T11:01:46;9.63;;;7.32;;
14348;SDS011;7258;50.376;8.742;2024-02-16T11:03:49;10.60;;;7.50;;
14348;SDS011;7258;50.376;8.742;2024-02-16T11:06:11;8.32;;;7.07;;
14348;SDS011;7258;50.376;8.742;2024-02-16T11:08:17;8.38;;;7.60;;
14348;SDS011;7258;50.376;8.742;2024-02-16T11:10:22;11.60;;;6.82;;
14348;SDS011;7258;50.376;8.742;2024-02-16T11:12:25;11.23;;;6.53;;
14348;SDS011;7258;50.376;8.742;2024-02-16T11:14:37;11.50;;;7.57;;
14348;SDS011;7258;50.376;8.742;2024-02-16T11:16:43;9.13;;;6.88;;
14348;SDS011;7258;50.376;8.742;2024-02-16T11:18:47;8.77;;;6.90;;
14348;SDS011;7258;50.376;8.742;2024-02-16T11:20:50;9.18;;;6.97;;
14348;SDS011;7258;50.376;8.742;2024-02-16T11:23:04;7.93;;;6.65;;
14348;SDS011;7258;50.376;8.742;2024-02-16T11:25:08;7.80;;;7.03;;
14348;SDS011;7258;50.376;8.742;2024-02-16T11:27:13;8.20;;;7.38;;
14348;SDS011;7258;50.376;8.742;2024-02-16T11:29:17;9.60;;;7.00;;
14348;SDS011;7258;50.376;8.742;2024-02-16T11:31:20;7.80;;;6.90;;
14348;SDS011;7258;50.376;8.742;2024-02-16T11:33:24;7.78;;;5.93;;
14348;SDS011;7258;50.376;8.742;2024-02-16T11:35:28;6.72;;;6.10;;
14348;SDS011;7258;50.376;8.742;2024-02-16T11:37:31;7.80;;;6.05;;
14348;SDS011;7258;50.376;8.742;2024-02-16T11:39:35;8.57;;;6.30;;
14348;SDS011;7258;50.376;8.742;2024-02-16T11:41:39;10.50;;;6.60;;
14348;SDS011;7258;50.376;8.742;2024-02-16T11:43:43;8.57;;;6.75;;
14348;SDS011;7258;50.376;8.742;2024-02-16T11:45:46;9.40;;;6.32;;
14348;SDS011;7258;50.376;8.742;2024-02-16T11:47:48;7.65;;;6.50;;
14348;SDS011;7258;50.376;8.742;2024-02-16T11:49:59;8.68;;;6.68;;
14348;SDS011;7258;50.376;8.742;2024-02-16T11:52:03;9.05;;;6.63;;
14348;SDS011;7258;50.376;8.742;2024-02-16T11:54:07;10.85;;;6.68;;
14348;SDS011;7258;50.376;8.742;2024-02-16T11:56:20;9.73;;;6.60;;
14348;SDS011;7258;50.376;8.742;2024-02-16T11:58:25;9.27;;;6.68;;
14348;SDS011;7258;50.376;8.742;2024-02-16T12:00:31;8.45;;;6.97;;
14348;SDS011;7258;50.376;8.742;2024-02-16T12:02:34;10.23;;;6.57;;
14348;SDS011;7258;50.376;8.742;2024-02-16T12:04:37;7.93;;;6.88;;
14348;SDS011;7258;50.376;8.742;2024-02-16T12:06:55;11.45;;;6.95;;
14348;SDS011;7258;50.376;8.742;2024-02-16T12:09:04;8.45;;;6.68;;
14348;SDS011;7258;50.376;8.742;2024-02-16T12:11:07;7.22;;;6.05;;
14348;SDS011;7258;50.376;8.742;2024-02-16T12:13:11;7.78;;;6.10;;
14348;SDS011;7258;50.376;8.742;2024-02-16T12:15:13;8.82;;;6.88;;
14348;SDS011;7258;50.376;8.742;2024-02-16T12:17:19;8.48;;;6.28;;
14348;SDS011;7258;50.376;8.742;2024-02-16T12:19:22;10.18;;;6.10;;
14348;SDS011;7258;50.376;8.742;2024-02-16T12:21:26;8.15;;;6.45;;
14348;SDS011;7258;50.376;8.742;2024-02-16T12:23:32;9.70;;;6.25;;
14348;SDS011;7258;50.376;8.742;2024-02-16T12:25:36;9.43;;;6.95;;
14348;SDS011;7258;50.376;8.742;2024-02-16T12:27:39;8.45;;;5.95;;
14348;SDS011;7258;50.376;8.742;2024-02-16T12:29:42;9.75;;;6.53;;
14348;SDS011;7258;50.376;8.742;2024-02-16T12:31:46;8.43;;;6.15;;
14348;SDS011;7258;50.376;8.742;2024-02-16T12:33:52;6.47;;;5.68;;